sensor_id;sensor_type;location;lat;lon;timestamp;pressure;altitude;pressure_sealevel;temperature;humidity
61761;BME280;47664;51.660;-0.100;2022-08-19T00:01:35;100630.93;;;20.19;57.76
61761;BME280;47664;51.660;-0.100;2022-08-19T00:04:09;100629.11;;;20.72;57.01
61761;BME280;47664;51.660;-0.100;2022-08-19T00:06:44;100627.96;;;20.90;56.56
61761;BME280;47664;51.660;-0.100;2022-08-19T00:09:19;100625.79;;;20.76;55.82
61761;BME280;47664;51.660;-0.100;2022-08-19T00:11:52;100628.18;;;20.80;56.20
61761;BME280;47664;51.660;-0.100;2022-08-19T00:14:25;100625.83;;;21.10;55.70
61761;BME280;47664;51.660;-0.100;2022-08-19T00:16:57;100621.50;;;21.16;55.57
61761;BME280;47664;51.660;-0.100;2022-08-19T00:19:30;100626.91;;;20.98;56.51
61761;BME280;47664;51.660;-0.100;2022-08-19T00:22:03;100623.22;;;20.80;55.75
61761;BME280;47664;51.660;-0.100;2022-08-19T00:24:36;100617.66;;;21.21;56.08
61761;BME280;47664;51.660;-0.100;2022-08-19T00:27:09;100619.75;;;20.34;57.56
61761;BME280;47664;51.660;-0.100;2022-08-19T00:29:42;100617.78;;;20.99;56.67
61761;BME280;47664;51.660;-0.100;2022-08-19T00:32:13;100622.02;;;20.83;57.10
61761;BME280;47664;51.660;-0.100;2022-08-19T00:34:46;100621.78;;;20.99;56.53
61761;BME280;47664;51.660;-0.100;2022-08-19T00:37:18;100619.51;;;21.06;56.35
61761;BME280;47664;51.660;-0.100;2022-08-19T00:39:50;100619.53;;;20.72;56.63
61761;BME280;47664;51.660;-0.100;2022-08-19T00:42:22;100611.37;;;20.80;56.39
61761;BME280;47664;51.660;-0.100;2022-08-19T00:44:55;100612.88;;;20.59;57.97
61761;BME280;47664;51.660;-0.100;2022-08-19T00:47:27;100612.09;;;20.44;57.44
61761;BME280;47664;51.660;-0.100;2022-08-19T00:50:01;100612.22;;;20.92;56.85
61761;BME280;47664;51.660;-0.100;2022-08-19T00:52:33;100613.83;;;21.03;57.21
61761;BME280;47664;51.660;-0.100;2022-08-19T00:55:07;100611.40;;;21.23;56.81
61761;BME280;47664;51.660;-0.100;2022-08-19T00:57:44;100606.78;;;20.80;57.39
61761;BME280;47664;51.660;-0.100;2022-08-19T01:00:20;100600.37;;;20.86;57.71
61761;BME280;47664;51.660;-0.100;2022-08-19T01:02:53;100600.62;;;20.38;58.47
61761;BME280;47664;51.660;-0.100;2022-08-19T01:05:27;100599.25;;;20.44;59.25
61761;BME280;47664;51.660;-0.100;2022-08-19T01:08:03;100598.64;;;20.63;58.62
61761;BME280;47664;51.660;-0.100;2022-08-19T01:10:40;100598.57;;;20.68;58.70
61761;BME280;47664;51.660;-0.100;2022-08-19T01:13:14;100603.25;;;20.82;58.39
61761;BME280;47664;51.660;-0.100;2022-08-19T01:15:50;100605.29;;;20.31;58.57
61761;BME280;47664;51.660;-0.100;2022-08-19T01:18:25;100600.59;;;20.87;57.89
61761;BME280;47664;51.660;-0.100;2022-08-19T01:21:00;100597.79;;;20.98;57.72
61761;BME280;47664;51.660;-0.100;2022-08-19T01:23:33;100606.30;;;20.79;58.17
61761;BME280;47664;51.660;-0.100;2022-08-19T01:26:06;100605.48;;;20.96;58.02
61761;BME280;47664;51.660;-0.100;2022-08-19T01:28:38;100601.67;;;20.81;57.69
61761;BME280;47664;51.660;-0.100;2022-08-19T01:31:12;100609.77;;;21.01;58.30
61761;BME280;47664;51.660;-0.100;2022-08-19T01:33:44;100610.03;;;20.78;57.77
61761;BME280;47664;51.660;-0.100;2022-08-19T01:36:22;100609.47;;;20.88;57.68
61761;BME280;47664;51.660;-0.100;2022-08-19T01:38:54;100611.84;;;21.00;57.94
61761;BME280;47664;51.660;-0.100;2022-08-19T01:41:27;100610.73;;;21.27;58.00
61761;BME280;47664;51.660;-0.100;2022-08-19T01:43:59;100607.62;;;20.90;58.77
61761;BME280;47664;51.660;-0.100;2022-08-19T01:46:31;100606.73;;;20.42;59.37
61761;BME280;47664;51.660;-0.100;2022-08-19T01:49:04;100605.81;;;21.02;58.80
61761;BME280;47664;51.660;-0.100;2022-08-19T01:51:37;100606.11;;;20.69;58.31
61761;BME280;47664;51.660;-0.100;2022-08-19T01:54:09;100601.03;;;21.11;58.10
61761;BME280;47664;51.660;-0.100;2022-08-19T01:56:42;100598.57;;;20.90;58.00
61761;BME280;47664;51.660;-0.100;2022-08-19T01:59:12;100597.40;;;21.17;57.41
61761;BME280;47664;51.660;-0.100;2022-08-19T02:01:46;100595.96;;;20.77;57.68
61761;BME280;47664;51.660;-0.100;2022-08-19T02:04:18;100596.98;;;21.22;57.19
61761;BME280;47664;51.660;-0.100;2022-08-19T02:06:50;100597.58;;;21.12;57.34
61761;BME280;47664;51.660;-0.100;2022-08-19T02:09:22;100598.25;;;21.15;57.40
61761;BME280;47664;51.660;-0.100;2022-08-19T02:11:54;100600.05;;;21.29;56.96
61761;BME280;47664;51.660;-0.100;2022-08-19T02:14:26;100602.87;;;21.26;57.59
61761;BME280;47664;51.660;-0.100;2022-08-19T02:16:58;100601.94;;;21.27;57.75
61761;BME280;47664;51.660;-0.100;2022-08-19T02:19:30;100602.53;;;21.12;57.36
61761;BME280;47664;51.660;-0.100;2022-08-19T02:22:03;100607.35;;;21.04;58.48
61761;BME280;47664;51.660;-0.100;2022-08-19T02:24:35;100606.27;;;20.80;58.87
61761;BME280;47664;51.660;-0.100;2022-08-19T02:27:07;100603.32;;;21.04;58.20
61761;BME280;47664;51.660;-0.100;2022-08-19T02:29:40;100604.30;;;20.67;58.52
61761;BME280;47664;51.660;-0.100;2022-08-19T02:32:12;100601.22;;;20.51;58.80
61761;BME280;47664;51.660;-0.100;2022-08-19T02:34:44;100607.04;;;20.53;58.84
61761;BME280;47664;51.660;-0.100;2022-08-19T02:37:16;100604.55;;;21.07;58.38
61761;BME280;47664;51.660;-0.100;2022-08-19T02:39:48;100609.70;;;20.40;59.04
61761;BME280;47664;51.660;-0.100;2022-08-19T02:42:20;100613.38;;;21.00;59.00
61761;BME280;47664;51.660;-0.100;2022-08-19T02:44:52;100609.58;;;20.53;59.43
61761;BME280;47664;51.660;-0.100;2022-08-19T02:47:27;100611.44;;;20.40;60.37
61761;BME280;47664;51.660;-0.100;2022-08-19T02:50:00;100612.80;;;20.63;60.01
61761;BME280;47664;51.660;-0.100;2022-08-19T02:52:33;100615.11;;;20.87;59.50
61761;BME280;47664;51.660;-0.100;2022-08-19T02:55:06;100611.06;;;20.30;59.68
61761;BME280;47664;51.660;-0.100;2022-08-19T02:57:38;100612.61;;;20.79;59.25
61761;BME280;47664;51.660;-0.100;2022-08-19T03:00:12;100614.85;;;20.80;59.28
61761;BME280;47664;51.660;-0.100;2022-08-19T03:02:44;100615.69;;;20.76;58.39
61761;BME280;47664;51.660;-0.100;2022-08-19T03:05:16;100613.22;;;21.08;58.14
61761;BME280;47664;51.660;-0.100;2022-08-19T03:07:48;100614.24;;;20.65;58.53
61761;BME280;47664;51.660;-0.100;2022-08-19T03:10:21;100616.95;;;20.94;58.45
61761;BME280;47664;51.660;-0.100;2022-08-19T03:12:53;100610.99;;;21.19;57.93
61761;BME280;47664;51.660;-0.100;2022-08-19T03:15:25;100614.36;;;21.22;57.85
61761;BME280;47664;51.660;-0.100;2022-08-19T03:17:57;100618.00;;;20.59;59.96
61761;BME280;47664;51.660;-0.100;2022-08-19T03:20:29;100616.13;;;20.96;59.65
61761;BME280;47664;51.660;-0.100;2022-08-19T03:23:01;100617.92;;;20.74;59.41
61761;BME280;47664;51.660;-0.100;2022-08-19T03:25:36;100616.17;;;20.69;59.59
61761;BME280;47664;51.660;-0.100;2022-08-19T03:28:09;100615.02;;;20.95;59.13
61761;BME280;47664;51.660;-0.100;2022-08-19T03:30:43;100613.39;;;20.91;58.93
61761;BME280;47664;51.660;-0.100;2022-08-19T03:33:15;100613.51;;;20.83;59.81
61761;BME280;47664;51.660;-0.100;2022-08-19T03:35:56;100610.80;;;20.63;59.74
61761;BME280;47664;51.660;-0.100;2022-08-19T03:38:30;100612.32;;;20.96;60.12
61761;BME280;47664;51.660;-0.100;2022-08-19T03:41:03;100611.02;;;20.52;59.83
61761;BME280;47664;51.660;-0.100;2022-08-19T03:43:36;100612.08;;;20.53;59.86
61761;BME280;47664;51.660;-0.100;2022-08-19T03:46:11;100609.85;;;20.90;60.30
61761;BME280;47664;51.660;-0.100;2022-08-19T03:48:44;100611.63;;;20.35;61.29
61761;BME280;47664;51.660;-0.100;2022-08-19T03:51:16;100617.56;;;20.56;60.73
61761;BME280;47664;51.660;-0.100;2022-08-19T03:53:49;100625.94;;;20.70;60.33
61761;BME280;47664;51.660;-0.100;2022-08-19T03:56:21;100624.97;;;20.87;61.06
61761;BME280;47664;51.660;-0.100;2022-08-19T03:58:53;100629.12;;;20.77;60.84
61761;BME280;47664;51.660;-0.100;2022-08-19T04:01:26;100632.02;;;21.07;60.84
61761;BME280;47664;51.660;-0.100;2022-08-19T04:03:59;100626.70;;;20.85;60.87
61761;BME280;47664;51.660;-0.100;2022-08-19T04:06:29;100619.87;;;20.93;60.62
61761;BME280;47664;51.660;-0.100;2022-08-19T04:09:04;100615.29;;;20.79;60.27
61761;BME280;47664;51.660;-0.100;2022-08-19T04:11:39;100615.98;;;21.03;60.42
61761;BME280;47664;51.660;-0.100;2022-08-19T04:14:14;100613.36;;;21.01;60.56
61761;BME280;47664;51.660;-0.100;2022-08-19T04:16:47;100610.96;;;20.98;59.90
61761;BME280;47664;51.660;-0.100;2022-08-19T04:19:21;100617.52;;;20.97;59.71
61761;BME280;47664;51.660;-0.100;2022-08-19T04:21:55;100618.92;;;21.00;59.26
61761;BME280;47664;51.660;-0.100;2022-08-19T04:24:27;100620.01;;;21.30;58.85
61761;BME280;47664;51.660;-0.100;2022-08-19T04:26:59;100621.17;;;21.15;60.47
61761;BME280;47664;51.660;-0.100;2022-08-19T04:29:31;100623.55;;;21.10;61.60
61761;BME280;47664;51.660;-0.100;2022-08-19T04:32:05;100625.27;;;20.99;61.76
61761;BME280;47664;51.660;-0.100;2022-08-19T04:34:37;100622.32;;;21.21;62.31
61761;BME280;47664;51.660;-0.100;2022-08-19T04:37:10;100622.20;;;20.81;63.02
61761;BME280;47664;51.660;-0.100;2022-08-19T04:39:42;100622.94;;;20.70;63.49
61761;BME280;47664;51.660;-0.100;2022-08-19T04:42:15;100625.80;;;20.48;63.58
61761;BME280;47664;51.660;-0.100;2022-08-19T04:44:47;100627.76;;;20.40;63.50
61761;BME280;47664;51.660;-0.100;2022-08-19T04:47:19;100633.52;;;20.64;63.64
61761;BME280;47664;51.660;-0.100;2022-08-19T04:49:51;100636.40;;;20.40;63.88
61761;BME280;47664;51.660;-0.100;2022-08-19T04:52:23;100638.34;;;20.43;64.35
61761;BME280;47664;51.660;-0.100;2022-08-19T04:54:55;100640.76;;;19.79;65.17
61761;BME280;47664;51.660;-0.100;2022-08-19T04:57:27;100640.88;;;19.86;66.60
61761;BME280;47664;51.660;-0.100;2022-08-19T05:00:00;100643.36;;;19.79;66.33
61761;BME280;47664;51.660;-0.100;2022-08-19T05:02:32;100640.58;;;20.04;65.73
61761;BME280;47664;51.660;-0.100;2022-08-19T05:05:05;100639.28;;;20.27;65.06
61761;BME280;47664;51.660;-0.100;2022-08-19T05:07:37;100641.07;;;20.17;65.12
61761;BME280;47664;51.660;-0.100;2022-08-19T05:10:10;100648.67;;;20.16;64.61
61761;BME280;47664;51.660;-0.100;2022-08-19T05:12:42;100651.15;;;20.46;64.00
61761;BME280;47664;51.660;-0.100;2022-08-19T05:15:14;100652.92;;;20.77;62.94
61761;BME280;47664;51.660;-0.100;2022-08-19T05:17:46;100656.01;;;20.35;62.56
61761;BME280;47664;51.660;-0.100;2022-08-19T05:20:18;100657.38;;;20.59;62.58
61761;BME280;47664;51.660;-0.100;2022-08-19T05:22:51;100659.11;;;20.56;62.83
61761;BME280;47664;51.660;-0.100;2022-08-19T05:25:24;100656.68;;;20.44;63.36
61761;BME280;47664;51.660;-0.100;2022-08-19T05:27:56;100661.45;;;20.35;63.31
61761;BME280;47664;51.660;-0.100;2022-08-19T05:30:28;100665.74;;;20.16;64.19
61761;BME280;47664;51.660;-0.100;2022-08-19T05:33:00;100667.23;;;20.20;64.54
61761;BME280;47664;51.660;-0.100;2022-08-19T05:35:32;100666.19;;;20.35;64.36
61761;BME280;47664;51.660;-0.100;2022-08-19T05:38:04;100665.38;;;20.75;63.74
61761;BME280;47664;51.660;-0.100;2022-08-19T05:40:38;100666.88;;;20.44;64.17
61761;BME280;47664;51.660;-0.100;2022-08-19T05:43:10;100671.44;;;20.06;64.65
61761;BME280;47664;51.660;-0.100;2022-08-19T05:45:44;100673.96;;;20.30;64.56
61761;BME280;47664;51.660;-0.100;2022-08-19T05:48:16;100666.64;;;20.45;64.40
61761;BME280;47664;51.660;-0.100;2022-08-19T05:50:48;100668.27;;;20.25;64.79
61761;BME280;47664;51.660;-0.100;2022-08-19T05:53:20;100670.33;;;20.20;65.27
61761;BME280;47664;51.660;-0.100;2022-08-19T05:55:52;100672.87;;;19.90;65.09
61761;BME280;47664;51.660;-0.100;2022-08-19T05:58:24;100675.61;;;20.09;65.31
61761;BME280;47664;51.660;-0.100;2022-08-19T06:00:56;100668.81;;;19.90;65.39
61761;BME280;47664;51.660;-0.100;2022-08-19T06:03:28;100672.01;;;19.82;65.57
61761;BME280;47664;51.660;-0.100;2022-08-19T06:06:01;100679.42;;;19.87;64.79
61761;BME280;47664;51.660;-0.100;2022-08-19T06:08:33;100682.50;;;19.87;64.46
61761;BME280;47664;51.660;-0.100;2022-08-19T06:11:20;100683.45;;;20.12;63.75
61761;BME280;47664;51.660;-0.100;2022-08-19T06:13:54;100680.24;;;20.09;62.83
61761;BME280;47664;51.660;-0.100;2022-08-19T06:16:27;100685.32;;;20.02;63.34
61761;BME280;47664;51.660;-0.100;2022-08-19T06:19:01;100686.32;;;19.92;63.08
61761;BME280;47664;51.660;-0.100;2022-08-19T06:21:35;100685.25;;;19.55;63.94
61761;BME280;47664;51.660;-0.100;2022-08-19T06:24:10;100688.36;;;19.67;63.54
61761;BME280;47664;51.660;-0.100;2022-08-19T06:26:46;100687.43;;;19.91;63.35
61761;BME280;47664;51.660;-0.100;2022-08-19T06:29:21;100682.21;;;19.80;63.18
61761;BME280;47664;51.660;-0.100;2022-08-19T06:31:56;100680.38;;;19.72;62.64
61761;BME280;47664;51.660;-0.100;2022-08-19T06:34:30;100682.82;;;19.87;62.81
61761;BME280;47664;51.660;-0.100;2022-08-19T06:37:04;100682.10;;;19.67;62.16
61761;BME280;47664;51.660;-0.100;2022-08-19T06:39:38;100682.92;;;20.07;62.14
61761;BME280;47664;51.660;-0.100;2022-08-19T06:42:11;100685.99;;;20.13;61.57
61761;BME280;47664;51.660;-0.100;2022-08-19T06:44:44;100685.86;;;19.51;61.44
61761;BME280;47664;51.660;-0.100;2022-08-19T06:47:20;100691.59;;;20.52;60.69
61761;BME280;47664;51.660;-0.100;2022-08-19T06:49:53;100687.86;;;19.92;61.23
61761;BME280;47664;51.660;-0.100;2022-08-19T06:52:25;100690.88;;;20.21;60.88
61761;BME280;47664;51.660;-0.100;2022-08-19T06:54:57;100692.32;;;20.16;59.86
61761;BME280;47664;51.660;-0.100;2022-08-19T06:57:30;100695.47;;;20.06;60.38
61761;BME280;47664;51.660;-0.100;2022-08-19T07:00:03;100701.18;;;19.58;60.97
61761;BME280;47664;51.660;-0.100;2022-08-19T07:02:35;100702.02;;;19.85;60.42
61761;BME280;47664;51.660;-0.100;2022-08-19T07:05:08;100704.69;;;20.04;59.97
61761;BME280;47664;51.660;-0.100;2022-08-19T07:07:40;100705.26;;;20.08;59.53
61761;BME280;47664;51.660;-0.100;2022-08-19T07:10:13;100709.96;;;19.95;59.22
61761;BME280;47664;51.660;-0.100;2022-08-19T07:12:45;100711.04;;;19.84;59.72
61761;BME280;47664;51.660;-0.100;2022-08-19T07:15:17;100711.63;;;20.02;58.54
61761;BME280;47664;51.660;-0.100;2022-08-19T07:17:50;100710.07;;;20.05;58.76
61761;BME280;47664;51.660;-0.100;2022-08-19T07:20:22;100711.45;;;20.11;57.84
61761;BME280;47664;51.660;-0.100;2022-08-19T07:22:54;100714.71;;;19.98;57.19
61761;BME280;47664;51.660;-0.100;2022-08-19T07:25:26;100711.58;;;19.93;55.83
61761;BME280;47664;51.660;-0.100;2022-08-19T07:27:58;100716.67;;;19.88;56.30
61761;BME280;47664;51.660;-0.100;2022-08-19T07:30:30;100717.09;;;20.00;55.69
61761;BME280;47664;51.660;-0.100;2022-08-19T07:33:02;100716.96;;;19.82;55.82
61761;BME280;47664;51.660;-0.100;2022-08-19T07:35:34;100721.19;;;19.72;55.94
61761;BME280;47664;51.660;-0.100;2022-08-19T07:38:06;100721.74;;;19.47;56.51
61761;BME280;47664;51.660;-0.100;2022-08-19T07:40:39;100719.83;;;19.86;55.19
61761;BME280;47664;51.660;-0.100;2022-08-19T07:43:11;100721.58;;;20.15;55.10
61761;BME280;47664;51.660;-0.100;2022-08-19T07:45:44;100725.25;;;19.52;55.09
61761;BME280;47664;51.660;-0.100;2022-08-19T07:48:17;100720.62;;;19.94;54.38
61761;BME280;47664;51.660;-0.100;2022-08-19T07:50:49;100725.87;;;19.63;54.52
61761;BME280;47664;51.660;-0.100;2022-08-19T07:53:21;100728.29;;;19.92;54.72
61761;BME280;47664;51.660;-0.100;2022-08-19T07:55:53;100723.52;;;19.73;54.97
61761;BME280;47664;51.660;-0.100;2022-08-19T07:58:27;100730.44;;;20.26;54.11
61761;BME280;47664;51.660;-0.100;2022-08-19T08:00:59;100729.58;;;20.47;52.91
61761;BME280;47664;51.660;-0.100;2022-08-19T08:03:33;100729.42;;;20.93;52.56
61761;BME280;47664;51.660;-0.100;2022-08-19T08:06:05;100729.90;;;20.86;52.52
61761;BME280;47664;51.660;-0.100;2022-08-19T08:08:38;100732.67;;;21.31;52.17
61761;BME280;47664;51.660;-0.100;2022-08-19T08:11:11;100737.88;;;20.83;51.63
61761;BME280;47664;51.660;-0.100;2022-08-19T08:13:44;100746.53;;;20.35;51.98
61761;BME280;47664;51.660;-0.100;2022-08-19T08:16:15;100748.66;;;20.55;51.67
61761;BME280;47664;51.660;-0.100;2022-08-19T08:18:47;100755.19;;;20.08;51.15
61761;BME280;47664;51.660;-0.100;2022-08-19T08:21:20;100747.90;;;20.31;52.51
61761;BME280;47664;51.660;-0.100;2022-08-19T08:23:52;100746.08;;;19.91;52.87
61761;BME280;47664;51.660;-0.100;2022-08-19T08:26:24;100749.08;;;19.93;52.05
61761;BME280;47664;51.660;-0.100;2022-08-19T08:28:57;100749.65;;;19.68;52.69
61761;BME280;47664;51.660;-0.100;2022-08-19T08:31:29;100752.96;;;19.91;53.05
61761;BME280;47664;51.660;-0.100;2022-08-19T08:34:01;100748.84;;;19.80;52.55
61761;BME280;47664;51.660;-0.100;2022-08-19T08:36:35;100748.45;;;19.82;52.22
61761;BME280;47664;51.660;-0.100;2022-08-19T08:39:08;100745.69;;;19.91;51.57
61761;BME280;47664;51.660;-0.100;2022-08-19T08:41:42;100748.91;;;19.91;52.13
61761;BME280;47664;51.660;-0.100;2022-08-19T08:44:15;100745.70;;;19.18;51.86
61761;BME280;47664;51.660;-0.100;2022-08-19T08:46:50;100746.98;;;19.60;51.86
61761;BME280;47664;51.660;-0.100;2022-08-19T08:49:28;100746.74;;;19.93;51.21
61761;BME280;47664;51.660;-0.100;2022-08-19T08:52:02;100750.96;;;20.24;50.94
61761;BME280;47664;51.660;-0.100;2022-08-19T08:54:35;100751.95;;;20.49;50.48
61761;BME280;47664;51.660;-0.100;2022-08-19T08:57:07;100754.16;;;20.91;49.36
61761;BME280;47664;51.660;-0.100;2022-08-19T08:59:43;100754.37;;;21.26;49.24
61761;BME280;47664;51.660;-0.100;2022-08-19T09:02:19;100751.57;;;21.08;49.43
61761;BME280;47664;51.660;-0.100;2022-08-19T09:04:51;100751.24;;;20.90;49.88
61761;BME280;47664;51.660;-0.100;2022-08-19T09:07:32;100752.58;;;21.01;49.29
61761;BME280;47664;51.660;-0.100;2022-08-19T09:10:08;100750.94;;;21.40;48.05
61761;BME280;47664;51.660;-0.100;2022-08-19T09:12:45;100746.04;;;21.43;47.86
61761;BME280;47664;51.660;-0.100;2022-08-19T09:15:29;100742.53;;;21.65;47.52
61761;BME280;47664;51.660;-0.100;2022-08-19T09:18:04;100737.88;;;21.42;47.36
61761;BME280;47664;51.660;-0.100;2022-08-19T09:20:37;100733.99;;;21.79;47.24
61761;BME280;47664;51.660;-0.100;2022-08-19T09:23:10;100730.30;;;21.89;47.83
61761;BME280;47664;51.660;-0.100;2022-08-19T09:25:42;100729.07;;;21.74;46.60
61761;BME280;47664;51.660;-0.100;2022-08-19T09:28:14;100729.15;;;21.87;47.15
61761;BME280;47664;51.660;-0.100;2022-08-19T09:30:46;100725.72;;;22.00;45.75
61761;BME280;47664;51.660;-0.100;2022-08-19T09:33:18;100716.95;;;21.86;45.02
61761;BME280;47664;51.660;-0.100;2022-08-19T09:35:50;100721.27;;;21.81;46.47
61761;BME280;47664;51.660;-0.100;2022-08-19T09:38:33;100718.28;;;22.35;45.28
61761;BME280;47664;51.660;-0.100;2022-08-19T09:41:03;100725.69;;;21.82;45.77
61761;BME280;47664;51.660;-0.100;2022-08-19T09:43:35;100729.34;;;22.43;45.11
61761;BME280;47664;51.660;-0.100;2022-08-19T09:46:08;100733.25;;;21.75;45.96
61761;BME280;47664;51.660;-0.100;2022-08-19T09:48:42;100731.39;;;22.01;46.18
61761;BME280;47664;51.660;-0.100;2022-08-19T09:51:18;100738.99;;;21.60;46.03
61761;BME280;47664;51.660;-0.100;2022-08-19T09:53:51;100735.96;;;21.08;46.40
61761;BME280;47664;51.660;-0.100;2022-08-19T09:56:24;100739.48;;;21.20;47.42
61761;BME280;47664;51.660;-0.100;2022-08-19T09:58:57;100739.94;;;21.08;46.95
61761;BME280;47664;51.660;-0.100;2022-08-19T10:01:30;100739.51;;;21.17;46.90
61761;BME280;47664;51.660;-0.100;2022-08-19T10:04:03;100735.73;;;20.86;47.73
61761;BME280;47664;51.660;-0.100;2022-08-19T10:06:36;100733.74;;;20.87;47.49
61761;BME280;47664;51.660;-0.100;2022-08-19T10:09:10;100731.20;;;20.85;47.90
61761;BME280;47664;51.660;-0.100;2022-08-19T10:11:44;100731.95;;;21.18;46.75
61761;BME280;47664;51.660;-0.100;2022-08-19T10:14:17;100733.46;;;21.95;46.28
61761;BME280;47664;51.660;-0.100;2022-08-19T10:16:49;100745.00;;;20.98;45.99
61761;BME280;47664;51.660;-0.100;2022-08-19T10:19:21;100742.63;;;21.59;46.05
61761;BME280;47664;51.660;-0.100;2022-08-19T10:21:53;100748.60;;;21.31;46.07
61761;BME280;47664;51.660;-0.100;2022-08-19T10:24:25;100752.70;;;21.49;45.58
61761;BME280;47664;51.660;-0.100;2022-08-19T10:26:58;100747.65;;;21.57;45.43
61761;BME280;47664;51.660;-0.100;2022-08-19T10:29:31;100747.27;;;21.56;45.43
61761;BME280;47664;51.660;-0.100;2022-08-19T10:32:05;100745.93;;;21.69;44.95
61761;BME280;47664;51.660;-0.100;2022-08-19T10:34:38;100740.31;;;21.95;43.67
61761;BME280;47664;51.660;-0.100;2022-08-19T10:37:10;100734.36;;;22.15;43.56
61761;BME280;47664;51.660;-0.100;2022-08-19T10:39:44;100738.09;;;22.34;43.68
61761;BME280;47664;51.660;-0.100;2022-08-19T10:42:17;100739.63;;;22.63;43.02
61761;BME280;47664;51.660;-0.100;2022-08-19T10:44:49;100741.76;;;22.01;42.31
61761;BME280;47664;51.660;-0.100;2022-08-19T10:47:21;100741.27;;;22.31;42.23
61761;BME280;47664;51.660;-0.100;2022-08-19T10:49:54;100740.09;;;22.26;41.59
61761;BME280;47664;51.660;-0.100;2022-08-19T10:52:27;100736.11;;;22.73;41.06
61761;BME280;47664;51.660;-0.100;2022-08-19T10:54:59;100742.86;;;22.52;41.15
61761;BME280;47664;51.660;-0.100;2022-08-19T10:57:30;100739.82;;;22.18;41.04
61761;BME280;47664;51.660;-0.100;2022-08-19T11:00:03;100740.58;;;22.48;40.68
61761;BME280;47664;51.660;-0.100;2022-08-19T11:02:35;100736.61;;;23.08;39.31
61761;BME280;47664;51.660;-0.100;2022-08-19T11:05:08;100736.22;;;22.65;39.61
61761;BME280;47664;51.660;-0.100;2022-08-19T11:07:40;100738.13;;;23.35;37.99
61761;BME280;47664;51.660;-0.100;2022-08-19T11:10:14;100737.15;;;23.05;39.34
61761;BME280;47664;51.660;-0.100;2022-08-19T11:12:46;100740.50;;;22.47;38.57
61761;BME280;47664;51.660;-0.100;2022-08-19T11:15:18;100742.07;;;22.55;39.55
61761;BME280;47664;51.660;-0.100;2022-08-19T11:17:51;100747.03;;;22.38;40.09
61761;BME280;47664;51.660;-0.100;2022-08-19T11:20:23;100749.44;;;22.70;40.21
61761;BME280;47664;51.660;-0.100;2022-08-19T11:22:56;100753.19;;;22.50;40.10
61761;BME280;47664;51.660;-0.100;2022-08-19T11:25:28;100755.63;;;22.19;40.76
61761;BME280;47664;51.660;-0.100;2022-08-19T11:28:00;100766.82;;;21.88;40.25
61761;BME280;47664;51.660;-0.100;2022-08-19T11:30:32;100758.75;;;22.70;38.18
61761;BME280;47664;51.660;-0.100;2022-08-19T11:33:04;100760.47;;;23.22;36.76
61761;BME280;47664;51.660;-0.100;2022-08-19T11:35:38;100761.07;;;22.93;36.63
61761;BME280;47664;51.660;-0.100;2022-08-19T11:38:11;100763.63;;;23.29;36.63
61761;BME280;47664;51.660;-0.100;2022-08-19T11:40:43;100768.47;;;23.11;37.80
61761;BME280;47664;51.660;-0.100;2022-08-19T11:43:15;100762.96;;;23.44;36.43
61761;BME280;47664;51.660;-0.100;2022-08-19T11:45:47;100768.05;;;22.81;36.75
61761;BME280;47664;51.660;-0.100;2022-08-19T11:48:19;100768.44;;;22.52;36.40
61761;BME280;47664;51.660;-0.100;2022-08-19T11:50:51;100770.18;;;22.88;36.22
61761;BME280;47664;51.660;-0.100;2022-08-19T11:53:24;100769.21;;;22.84;35.76
61761;BME280;47664;51.660;-0.100;2022-08-19T11:55:58;100771.88;;;22.94;36.38
61761;BME280;47664;51.660;-0.100;2022-08-19T11:58:30;100769.73;;;22.72;34.27
61761;BME280;47664;51.660;-0.100;2022-08-19T12:01:05;100770.28;;;22.96;35.43
61761;BME280;47664;51.660;-0.100;2022-08-19T12:03:38;100774.52;;;22.62;35.66
61761;BME280;47664;51.660;-0.100;2022-08-19T12:06:11;100773.06;;;22.82;35.72
61761;BME280;47664;51.660;-0.100;2022-08-19T12:08:44;100775.05;;;23.02;35.59
61761;BME280;47664;51.660;-0.100;2022-08-19T12:11:15;100774.53;;;22.78;34.96
61761;BME280;47664;51.660;-0.100;2022-08-19T12:13:47;100769.20;;;22.91;34.74
61761;BME280;47664;51.660;-0.100;2022-08-19T12:16:22;100763.99;;;23.14;34.13
61761;BME280;47664;51.660;-0.100;2022-08-19T12:18:55;100760.75;;;24.23;32.83
61761;BME280;47664;51.660;-0.100;2022-08-19T12:21:28;100772.22;;;23.25;34.39
61761;BME280;47664;51.660;-0.100;2022-08-19T12:24:03;100771.43;;;23.49;33.15
61761;BME280;47664;51.660;-0.100;2022-08-19T12:26:36;100764.79;;;23.44;33.00
61761;BME280;47664;51.660;-0.100;2022-08-19T12:29:08;100771.37;;;23.18;34.10
61761;BME280;47664;51.660;-0.100;2022-08-19T12:31:40;100769.81;;;23.49;33.37
61761;BME280;47664;51.660;-0.100;2022-08-19T12:34:12;100767.25;;;23.41;33.94
61761;BME280;47664;51.660;-0.100;2022-08-19T12:36:44;100768.78;;;22.83;32.71
61761;BME280;47664;51.660;-0.100;2022-08-19T12:39:16;100760.37;;;23.58;32.65
61761;BME280;47664;51.660;-0.100;2022-08-19T12:41:48;100757.41;;;23.39;32.94
61761;BME280;47664;51.660;-0.100;2022-08-19T12:44:21;100761.68;;;23.17;32.59
61761;BME280;47664;51.660;-0.100;2022-08-19T12:46:53;100771.23;;;23.02;32.73
61761;BME280;47664;51.660;-0.100;2022-08-19T12:49:26;100768.34;;;23.91;32.54
61761;BME280;47664;51.660;-0.100;2022-08-19T12:51:58;100769.48;;;22.88;31.72
61761;BME280;47664;51.660;-0.100;2022-08-19T12:54:30;100766.82;;;23.03;32.34
61761;BME280;47664;51.660;-0.100;2022-08-19T12:57:04;100767.15;;;23.00;32.36
61761;BME280;47664;51.660;-0.100;2022-08-19T12:59:37;100762.26;;;22.99;31.89
61761;BME280;47664;51.660;-0.100;2022-08-19T13:02:11;100760.25;;;23.08;31.20
61761;BME280;47664;51.660;-0.100;2022-08-19T13:04:43;100760.37;;;22.97;31.25
61761;BME280;47664;51.660;-0.100;2022-08-19T13:07:15;100762.58;;;23.41;31.57
61761;BME280;47664;51.660;-0.100;2022-08-19T13:09:47;100756.74;;;23.41;29.82